createdAt,value
2023-01-09T00:02:24.000Z,22.07
2023-01-09T00:07:24.000Z,21.45
2023-01-09T00:12:24.000Z,20.18
2023-01-09T00:17:24.000Z,19.4
2023-01-09T00:22:25.000Z,16.39
2023-01-09T00:27:24.000Z,17.36
2023-01-09T00:32:25.000Z,16.48
2023-01-09T00:37:24.000Z,17.4
2023-01-09T00:42:24.000Z,15.43
2023-01-09T00:47:24.000Z,13.64
2023-01-09T00:52:24.000Z,12.78
2023-01-09T00:57:24.000Z,13.3
2023-01-09T01:02:24.000Z,13.71
2023-01-09T01:07:24.000Z,12.97
2023-01-09T01:12:25.000Z,13.57
2023-01-09T01:17:24.000Z,13.39
2023-01-09T01:22:24.000Z,13.15
2023-01-09T01:27:24.000Z,14.64
2023-01-09T01:32:24.000Z,14.2
2023-01-09T01:37:24.000Z,14.14
2023-01-09T01:42:25.000Z,13.54
2023-01-09T01:47:24.000Z,14.07
2023-01-09T01:52:24.000Z,13.98
2023-01-09T01:57:24.000Z,13.8
2023-01-09T02:02:24.000Z,13.29
2023-01-09T02:07:25.000Z,13.37
2023-01-09T02:12:24.000Z,13.53
2023-01-09T02:17:24.000Z,13.49
2023-01-09T02:22:25.000Z,13.75
2023-01-09T02:27:24.000Z,14.38
2023-01-09T02:37:24.000Z,14.18
2023-01-09T02:42:25.000Z,15.11
2023-01-09T02:47:24.000Z,14.44
2023-01-09T02:52:25.000Z,16.64
2023-01-09T02:57:24.000Z,15.69
2023-01-09T03:02:25.000Z,16.91
2023-01-09T03:07:25.000Z,16.26
2023-01-09T03:12:25.000Z,16.25
2023-01-09T03:17:24.000Z,15.1
2023-01-09T03:22:25.000Z,14.94
2023-01-09T03:27:24.000Z,14.82
2023-01-09T03:32:25.000Z,14.41
2023-01-09T03:37:24.000Z,14.02
2023-01-09T03:42:25.000Z,15.19
2023-01-09T03:47:24.000Z,15.17
2023-01-09T03:52:25.000Z,15.27
2023-01-09T03:57:24.000Z,16.92
2023-01-09T04:02:24.000Z,16.67
2023-01-09T04:07:25.000Z,17.04
2023-01-09T04:12:24.000Z,16.83
2023-01-09T04:17:24.000Z,16.52
2023-01-09T04:22:25.000Z,16.5
2023-01-09T04:27:24.000Z,15.7
2023-01-09T04:32:25.000Z,15.15
2023-01-09T04:37:24.000Z,14.91
2023-01-09T04:42:24.000Z,15.58
2023-01-09T04:47:24.000Z,15.37
2023-01-09T04:52:25.000Z,14.38
2023-01-09T04:57:24.000Z,14.85
2023-01-09T05:02:25.000Z,13.59
2023-01-09T05:07:24.000Z,13.56
2023-01-09T05:12:24.000Z,13.76
2023-01-09T05:17:25.000Z,14.9
2023-01-09T05:22:24.000Z,14.12
2023-01-09T05:27:24.000Z,14.14
2023-01-09T05:32:24.000Z,13.94
2023-01-09T05:37:24.000Z,13.68
2023-01-09T05:42:25.000Z,13.79
2023-01-09T05:47:24.000Z,13.43
2023-01-09T05:52:25.000Z,14.2
2023-01-09T05:57:24.000Z,15.06
2023-01-09T06:02:25.000Z,19.73
2023-01-09T06:07:24.000Z,16.81
2023-01-09T06:12:24.000Z,15.78
2023-01-09T06:17:24.000Z,17.62
2023-01-09T06:22:24.000Z,18.53
2023-01-09T06:27:24.000Z,19.2
2023-01-09T06:32:24.000Z,19.37
2023-01-09T06:37:25.000Z,18.22
2023-01-09T06:42:24.000Z,18.66
2023-01-09T06:47:25.000Z,20.15
2023-01-09T06:52:24.000Z,22.71
2023-01-09T06:57:24.000Z,18.57
2023-01-09T07:02:24.000Z,16.75
2023-01-09T07:07:24.000Z,16.76
2023-01-09T07:12:24.000Z,15.33
2023-01-09T07:17:25.000Z,14.71
2023-01-09T07:22:24.000Z,14.14
2023-01-09T07:27:25.000Z,11.91
2023-01-09T07:32:24.000Z,11.3
2023-01-09T07:37:25.000Z,11.32
2023-01-09T07:42:24.000Z,10.52
2023-01-09T07:47:25.000Z,11.61
2023-01-09T07:52:24.000Z,11.77
2023-01-09T07:57:25.000Z,13.04
2023-01-09T08:02:24.000Z,11.98
2023-01-09T08:07:25.000Z,12.93
2023-01-09T08:12:24.000Z,14.47
2023-01-09T08:17:24.000Z,13.09
2023-01-09T08:27:24.000Z,12.85
2023-01-09T08:32:24.000Z,11.84
2023-01-09T08:37:24.000Z,10.77
2023-01-09T08:47:25.000Z,10.95
2023-01-09T08:57:25.000Z,10.97
2023-01-09T09:02:24.000Z,10
2023-01-09T09:07:25.000Z,10.98
2023-01-09T09:12:24.000Z,11.82
2023-01-09T09:17:25.000Z,10.45
2023-01-09T09:22:24.000Z,11.19
2023-01-09T09:27:24.000Z,10.96
2023-01-09T09:32:25.000Z,10.93
2023-01-09T09:37:24.000Z,10.98
2023-01-09T09:42:24.000Z,10.95
2023-01-09T09:47:25.000Z,11.38
2023-01-09T09:52:24.000Z,11.33
2023-01-09T09:57:25.000Z,11.83
2023-01-09T10:02:24.000Z,11.22
2023-01-09T10:07:24.000Z,11.27
2023-01-09T10:12:24.000Z,11.68
2023-01-09T10:17:24.000Z,12.03
2023-01-09T10:22:25.000Z,11.06
2023-01-09T10:27:24.000Z,11.11
2023-01-09T10:32:24.000Z,11.74
2023-01-09T10:37:24.000Z,12.54
2023-01-09T10:42:24.000Z,12.31
2023-01-09T10:47:24.000Z,11.43
2023-01-09T10:52:24.000Z,11.06
2023-01-09T10:57:25.000Z,12.08
2023-01-09T11:02:24.000Z,12.11
2023-01-09T11:07:24.000Z,11.32
2023-01-09T11:12:25.000Z,10.8
2023-01-09T11:17:24.000Z,12.82
2023-01-09T11:22:25.000Z,11.66
2023-01-09T11:27:24.000Z,11.04
2023-01-09T11:32:25.000Z,10.99
2023-01-09T11:37:24.000Z,10.86
2023-01-09T11:42:24.000Z,10.04
2023-01-09T11:47:24.000Z,9.89
2023-01-09T11:52:24.000Z,10.31
2023-01-09T11:57:24.000Z,10.69
2023-01-09T12:02:25.000Z,11.15
2023-01-09T12:07:24.000Z,11.02
2023-01-09T12:12:24.000Z,10.87
2023-01-09T12:17:25.000Z,12.13
2023-01-09T12:22:24.000Z,11.92
2023-01-09T12:27:25.000Z,11.31
2023-01-09T12:32:25.000Z,11.75
2023-01-09T12:37:24.000Z,12.15
2023-01-09T12:47:24.000Z,13.66
2023-01-09T12:52:24.000Z,13.76
2023-01-09T12:57:24.000Z,13.45
2023-01-09T13:02:24.000Z,12.81
2023-01-09T13:07:24.000Z,12.18
2023-01-09T13:12:25.000Z,11.82
2023-01-09T13:17:24.000Z,12.43
2023-01-09T13:22:24.000Z,13.95
2023-01-09T13:27:25.000Z,14.69
2023-01-09T13:32:25.000Z,15.63
2023-01-09T13:37:25.000Z,16.62
2023-01-09T13:42:24.000Z,16.45
2023-01-09T13:47:25.000Z,15.04
2023-01-09T13:52:24.000Z,14.64
2023-01-09T13:57:25.000Z,14.62
2023-01-09T14:02:24.000Z,13.47
2023-01-09T14:07:24.000Z,13.31
2023-01-09T14:12:24.000Z,14.33
2023-01-09T14:17:24.000Z,13.8
2023-01-09T14:22:25.000Z,11.93
2023-01-09T14:27:24.000Z,12.69
2023-01-09T14:32:24.000Z,11.93
2023-01-09T14:37:24.000Z,11.86
2023-01-09T14:42:25.000Z,11.76
2023-01-09T14:47:24.000Z,11.75
2023-01-09T14:52:24.000Z,10.72
2023-01-09T14:57:24.000Z,12.7
2023-01-09T15:02:24.000Z,13.65
2023-01-09T15:07:25.000Z,12.43
2023-01-09T15:12:24.000Z,11.06
2023-01-09T15:17:24.000Z,10.68
2023-01-09T15:22:25.000Z,9.09
2023-01-09T15:27:24.000Z,9.67
2023-01-09T15:32:24.000Z,10.21
2023-01-09T15:37:24.000Z,9.79
2023-01-09T15:42:24.000Z,9.75
2023-01-09T15:47:25.000Z,9.85
2023-01-09T15:52:24.000Z,8.97
2023-01-09T15:57:25.000Z,9.83
2023-01-09T16:02:25.000Z,9.27
2023-01-09T16:07:24.000Z,9.96
2023-01-09T16:12:24.000Z,8.44
2023-01-09T16:17:24.000Z,7.99
2023-01-09T16:27:24.000Z,9.72
2023-01-09T16:32:24.000Z,8.02
2023-01-09T16:37:25.000Z,8.91
2023-01-09T16:42:24.000Z,9.3
2023-01-09T16:47:24.000Z,8.04
2023-01-09T16:52:24.000Z,8.94
2023-01-09T16:57:25.000Z,9.04
2023-01-09T17:02:24.000Z,8.91
2023-01-09T17:07:24.000Z,9.05
2023-01-09T17:12:24.000Z,9.07
2023-01-09T17:17:25.000Z,8.39
2023-01-09T17:22:24.000Z,9.04
2023-01-09T17:27:24.000Z,7.32
2023-01-09T17:32:25.000Z,8.12
2023-01-09T17:37:24.000Z,8.65
2023-01-09T17:42:24.000Z,9.01
2023-01-09T17:47:25.000Z,9.78
2023-01-09T17:52:24.000Z,9.15
2023-01-09T17:57:24.000Z,8.93
2023-01-09T18:02:24.000Z,9.13
2023-01-09T18:07:25.000Z,9.4
2023-01-09T18:12:25.000Z,8.48
2023-01-09T18:17:24.000Z,10.05
2023-01-09T18:22:24.000Z,10.66
2023-01-09T18:27:25.000Z,10.08
2023-01-09T18:32:24.000Z,10.79
2023-01-09T18:37:24.000Z,10.34
2023-01-09T18:42:25.000Z,10.16
2023-01-09T18:47:24.000Z,8.83
2023-01-09T18:52:24.000Z,8.67
2023-01-09T19:02:24.000Z,9.89
2023-01-09T19:07:24.000Z,9.01
2023-01-09T19:12:24.000Z,9.59
2023-01-09T19:17:24.000Z,8.08
2023-01-09T19:22:24.000Z,8.64
2023-01-09T19:27:25.000Z,9.63
2023-01-09T19:32:24.000Z,10.03
2023-01-09T19:37:25.000Z,8.47
2023-01-09T19:42:24.000Z,9.33
2023-01-09T19:47:24.000Z,7.95
2023-01-09T19:52:24.000Z,9.27
2023-01-09T19:57:24.000Z,8.45
2023-01-09T20:02:25.000Z,8.79
2023-01-09T20:07:24.000Z,9.22
2023-01-09T20:12:24.000Z,9.55
2023-01-09T20:17:24.000Z,8.43
2023-01-09T20:22:24.000Z,9.82
2023-01-09T20:27:24.000Z,10.8
2023-01-09T20:32:24.000Z,9.21
2023-01-09T20:37:25.000Z,9.18
2023-01-09T20:42:24.000Z,8.17
2023-01-09T20:47:24.000Z,7.39
2023-01-09T20:52:24.000Z,9.46
2023-01-09T20:57:25.000Z,8.63
2023-01-09T21:02:25.000Z,8.47
2023-01-09T21:07:24.000Z,8.87
2023-01-09T21:12:24.000Z,9.89
2023-01-09T21:17:25.000Z,7.79
2023-01-09T21:22:25.000Z,9.11
2023-01-09T21:27:24.000Z,8.07
2023-01-09T21:32:25.000Z,8.07
2023-01-09T21:37:24.000Z,7.96
2023-01-09T21:42:24.000Z,9.39
2023-01-09T21:47:25.000Z,7.68
2023-01-09T21:52:24.000Z,8.62
2023-01-09T21:57:24.000Z,8.14
2023-01-09T22:02:24.000Z,8.52
2023-01-09T22:07:25.000Z,9.41
2023-01-09T22:12:24.000Z,10.23
2023-01-09T22:17:25.000Z,10.62
2023-01-09T22:22:24.000Z,10.58
2023-01-09T22:27:25.000Z,10.45
2023-01-09T22:32:24.000Z,7.75
2023-01-09T22:37:24.000Z,8.45
2023-01-09T22:42:24.000Z,8.46
2023-01-09T22:47:24.000Z,9.29
2023-01-09T22:52:24.000Z,8.4
2023-01-09T22:57:25.000Z,9.13
2023-01-09T23:02:24.000Z,9.01
2023-01-09T23:07:24.000Z,8.68
2023-01-09T23:12:24.000Z,10.21
2023-01-09T23:17:24.000Z,10.8
2023-01-09T23:22:24.000Z,8.78
2023-01-09T23:27:24.000Z,9.59
2023-01-09T23:32:24.000Z,9.47
2023-01-09T23:37:24.000Z,10.48
2023-01-09T23:42:24.000Z,10.41
2023-01-09T23:47:24.000Z,9.92
2023-01-09T23:52:24.000Z,9.01
2023-01-09T23:57:24.000Z,9.41
